createdAt,value
2022-11-09T00:01:30.254Z,100207.66
2022-11-09T00:04:00.234Z,100203.41
2022-11-09T00:06:29.948Z,100220.28
2022-11-09T00:09:04.111Z,100229.25
2022-11-09T00:11:38.235Z,100235.53
2022-11-09T00:14:07.203Z,100261.09
2022-11-09T00:16:35.691Z,100294.56
2022-11-09T00:19:04.280Z,100294.47
2022-11-09T00:21:33.021Z,100308.38
2022-11-09T00:24:01.639Z,100306.13
2022-11-09T00:26:30.233Z,100287.91
2022-11-09T00:29:00.123Z,100286.44
2022-11-09T00:31:28.630Z,100274.31
2022-11-09T00:33:58.835Z,100260.22
2022-11-09T00:36:29.138Z,100234.94
2022-11-09T00:38:59.706Z,100226.16
2022-11-09T00:41:28.854Z,100221.81
2022-11-09T00:43:58.846Z,100214.84
2022-11-09T00:46:27.754Z,100210.44
2022-11-09T00:48:56.831Z,100207.00
2022-11-09T00:51:25.982Z,100220.25
2022-11-09T00:53:55.406Z,100236.88
2022-11-09T00:56:24.770Z,100261.41
2022-11-09T00:58:55.784Z,100266.66
2022-11-09T01:01:26.042Z,100269.28
2022-11-09T01:03:54.726Z,100272.72
2022-11-09T01:06:25.020Z,100259.56
2022-11-09T01:08:54.218Z,100262.22
2022-11-09T01:11:23.831Z,100270.03
2022-11-09T01:13:54.880Z,100268.19
2022-11-09T01:16:25.627Z,100289.94
2022-11-09T01:18:55.999Z,100287.19
2022-11-09T01:21:27.461Z,100282.78
2022-11-09T01:23:56.508Z,100287.78
2022-11-09T01:26:25.187Z,100285.03
2022-11-09T01:28:53.868Z,100287.56
2022-11-09T01:31:23.705Z,100287.44
2022-11-09T01:33:53.350Z,100293.50
2022-11-09T01:36:24.848Z,100278.44
2022-11-09T01:38:53.702Z,100275.69
2022-11-09T01:41:24.720Z,100268.63
2022-11-09T01:44:12.596Z,100272.97
2022-11-09T01:46:53.003Z,100272.94
2022-11-09T01:49:40.814Z,100263.22
2022-11-09T01:52:14.215Z,100265.75
2022-11-09T01:54:49.059Z,100265.75
2022-11-09T01:57:23.059Z,100277.94
2022-11-09T02:00:00.608Z,100284.00
2022-11-09T02:02:29.412Z,100278.66
2022-11-09T02:05:02.768Z,100274.22
2022-11-09T02:07:31.599Z,100268.94
2022-11-09T02:10:08.097Z,100260.13
2022-11-09T02:12:37.551Z,100277.63
2022-11-09T02:15:11.433Z,100274.97
2022-11-09T02:17:40.912Z,100267.09
2022-11-09T02:20:13.668Z,100263.59
2022-11-09T02:22:42.896Z,100255.69
2022-11-09T02:25:13.556Z,100256.56
2022-11-09T02:27:43.641Z,100242.63
2022-11-09T02:30:13.541Z,100233.78
2022-11-09T02:32:41.894Z,100225.09
2022-11-09T02:35:12.285Z,100216.41
2022-11-09T02:37:45.695Z,100202.44
2022-11-09T02:40:21.687Z,100202.53
2022-11-09T02:42:50.528Z,100204.41
2022-11-09T02:45:19.379Z,100206.41
2022-11-09T02:47:47.993Z,100224.13
2022-11-09T02:50:18.132Z,100219.00
2022-11-09T02:52:46.775Z,100232.28
2022-11-09T02:55:15.757Z,100232.34
2022-11-09T02:57:44.883Z,100233.34
2022-11-09T03:00:16.518Z,100215.94
2022-11-09T03:02:46.100Z,100209.09
2022-11-09T03:05:18.300Z,100206.63
2022-11-09T03:07:47.484Z,100192.75
2022-11-09T03:10:16.238Z,100185.00
2022-11-09T03:12:44.676Z,100175.53
2022-11-09T03:15:15.923Z,100170.31
2022-11-09T03:17:47.641Z,100152.88
2022-11-09T03:20:18.591Z,100124.78
2022-11-09T03:22:46.886Z,100131.03
2022-11-09T03:25:15.639Z,100156.34
2022-11-09T03:27:44.646Z,100199.31
2022-11-09T03:30:14.812Z,100203.56
2022-11-09T03:32:48.014Z,100212.38
2022-11-09T03:35:20.094Z,100212.38
2022-11-09T03:37:48.965Z,100221.13
2022-11-09T03:40:18.237Z,100232.59
2022-11-09T03:43:35.081Z,100229.22
2022-11-09T03:46:03.665Z,100240.63
2022-11-09T03:48:31.932Z,100233.63
2022-11-09T03:51:01.656Z,100243.34
2022-11-09T03:53:29.914Z,100248.59
2022-11-09T03:55:58.970Z,100243.47
2022-11-09T03:58:27.549Z,100243.47
2022-11-09T04:00:55.894Z,100245.28
2022-11-09T04:03:24.161Z,100248.84
2022-11-09T04:05:52.474Z,100247.13
2022-11-09T04:08:22.111Z,100250.66
2022-11-09T04:10:50.431Z,100246.34
2022-11-09T04:13:19.111Z,100253.38
2022-11-09T04:15:47.643Z,100263.94
2022-11-09T04:18:17.839Z,100256.03
2022-11-09T04:20:46.446Z,100252.59
2022-11-09T04:23:16.094Z,100262.25
2022-11-09T04:25:46.084Z,100256.16
2022-11-09T04:28:20.091Z,100250.97
2022-11-09T04:30:48.734Z,100247.47
2022-11-09T04:33:17.579Z,100239.66
2022-11-09T04:35:46.367Z,100245.75
2022-11-09T04:38:16.066Z,100251.94
2022-11-09T04:40:45.760Z,100255.47
2022-11-09T04:43:15.983Z,100272.16
2022-11-09T04:45:44.574Z,100271.31
2022-11-09T04:48:13.210Z,100273.97
2022-11-09T04:50:41.873Z,100280.97
2022-11-09T04:53:12.669Z,100279.25
2022-11-09T04:55:42.487Z,100287.13
2022-11-09T04:58:12.662Z,100279.25
2022-11-09T05:00:40.934Z,100271.34
2022-11-09T05:03:09.682Z,100270.47
2022-11-09T05:05:44.050Z,100282.69
2022-11-09T05:08:15.635Z,100278.28
2022-11-09T05:10:44.769Z,100274.69
2022-11-09T05:13:14.959Z,100279.09
2022-11-09T05:15:43.565Z,100269.38
2022-11-09T05:18:12.159Z,100271.94
2022-11-09T05:20:40.672Z,100268.38
2022-11-09T05:23:26.548Z,100280.63
2022-11-09T05:25:54.871Z,100279.78
2022-11-09T05:28:24.495Z,100268.34
2022-11-09T05:30:52.755Z,100267.41
2022-11-09T05:33:21.690Z,100271.78
2022-11-09T05:35:50.533Z,100261.19
2022-11-09T05:38:19.256Z,100261.19
2022-11-09T05:40:49.478Z,100245.28
2022-11-09T05:43:17.933Z,100254.94
2022-11-09T05:45:48.099Z,100241.88
2022-11-09T05:48:18.071Z,100236.63
2022-11-09T05:50:46.616Z,100244.50
2022-11-09T05:53:33.732Z,100241.00
2022-11-09T05:56:07.535Z,100243.69
2022-11-09T05:58:38.652Z,100242.84
2022-11-09T06:01:11.302Z,100251.63
2022-11-09T06:03:44.415Z,100245.53
2022-11-09T06:06:15.684Z,100256.03
2022-11-09T06:08:44.430Z,100259.53
2022-11-09T06:11:19.872Z,100262.16
2022-11-09T06:13:52.532Z,100265.59
2022-11-09T06:16:22.297Z,100261.19
2022-11-09T06:18:51.007Z,100264.66
2022-11-09T06:21:19.589Z,100268.19
2022-11-09T06:23:48.165Z,100269.88
2022-11-09T06:26:17.268Z,100276.84
2022-11-09T06:28:45.856Z,100273.31
2022-11-09T06:31:16.841Z,100276.72
2022-11-09T06:33:46.687Z,100276.72
2022-11-09T06:36:15.474Z,100273.19
2022-11-09T06:38:43.948Z,100258.19
2022-11-09T06:41:12.746Z,100241.56
2022-11-09T06:43:41.523Z,100250.38
2022-11-09T06:46:11.349Z,100234.53
2022-11-09T06:48:40.307Z,100218.75
2022-11-09T06:51:11.237Z,100212.63
2022-11-09T06:53:41.405Z,100217.97
2022-11-09T06:56:10.188Z,100207.38
2022-11-09T06:58:38.823Z,100235.44
2022-11-09T07:01:11.242Z,100222.31
2022-11-09T07:03:40.521Z,100236.25
2022-11-09T07:06:12.518Z,100239.78
2022-11-09T07:08:41.834Z,100254.66
2022-11-09T07:11:13.334Z,100267.81
2022-11-09T07:13:41.709Z,100264.25
2022-11-09T07:16:11.954Z,100274.78
2022-11-09T07:18:40.310Z,100280.91
2022-11-09T07:21:13.980Z,100286.16
2022-11-09T07:23:43.389Z,100296.66
2022-11-09T07:26:11.994Z,100302.69
2022-11-09T07:28:40.787Z,100306.13
2022-11-09T07:31:09.399Z,100294.66
2022-11-09T07:33:37.968Z,100306.00
2022-11-09T07:36:07.787Z,100304.19
2022-11-09T07:38:37.388Z,100314.63
2022-11-09T07:41:05.914Z,100319.00
2022-11-09T07:43:34.149Z,100327.66
2022-11-09T07:46:05.924Z,100330.25
2022-11-09T07:48:34.562Z,100337.19
2022-11-09T07:51:03.567Z,100340.66
2022-11-09T07:53:32.324Z,100338.81
2022-11-09T07:56:04.338Z,100351.06
2022-11-09T07:58:34.241Z,100359.75
2022-11-09T08:01:02.532Z,100367.59
2022-11-09T08:03:30.732Z,100379.81
2022-11-09T08:05:59.098Z,100384.13
2022-11-09T08:08:27.337Z,100380.59
2022-11-09T08:10:58.496Z,100385.75
2022-11-09T08:13:28.159Z,100387.44
2022-11-09T08:15:56.739Z,100392.63
2022-11-09T08:18:25.110Z,100387.34
2022-11-09T08:20:53.361Z,100387.25
2022-11-09T08:23:22.590Z,100381.09
2022-11-09T08:25:51.735Z,100384.50
2022-11-09T08:28:20.362Z,100387.13
2022-11-09T08:30:57.588Z,100380.13
2022-11-09T08:33:27.397Z,100388.81
2022-11-09T08:35:56.362Z,100393.06
2022-11-09T08:38:24.770Z,100397.38
2022-11-09T08:40:58.776Z,100397.28
2022-11-09T08:43:27.528Z,100399.84
2022-11-09T08:45:57.202Z,100403.16
2022-11-09T08:48:25.840Z,100402.13
2022-11-09T08:50:55.816Z,100403.69
2022-11-09T08:53:24.989Z,100398.16
2022-11-09T08:55:53.774Z,100399.66
2022-11-09T08:58:22.909Z,100398.56
2022-11-09T09:00:51.442Z,100403.59
2022-11-09T09:03:21.084Z,100392.06
2022-11-09T09:05:49.274Z,100397.22
2022-11-09T09:08:21.885Z,100395.25
2022-11-09T09:10:50.970Z,100400.41
2022-11-09T09:13:22.534Z,100400.41
2022-11-09T09:15:51.466Z,100401.13
2022-11-09T09:18:21.556Z,100386.03
2022-11-09T09:20:50.423Z,100389.47
2022-11-09T09:23:19.257Z,100392.84
2022-11-09T09:25:48.303Z,100394.50
2022-11-09T09:28:16.565Z,100396.06
2022-11-09T09:30:45.186Z,100412.75
2022-11-09T09:33:13.385Z,100403.06
2022-11-09T09:35:43.033Z,100410.06
2022-11-09T09:38:11.373Z,100407.41
2022-11-09T09:40:49.617Z,100415.31
2022-11-09T09:43:27.881Z,100419.63
2022-11-09T09:45:57.026Z,100423.88
2022-11-09T09:48:36.734Z,100426.34
2022-11-09T09:51:14.586Z,100423.50
2022-11-09T09:53:48.773Z,100438.84
2022-11-09T09:56:21.845Z,100440.00
2022-11-09T09:58:57.797Z,100432.16
2022-11-09T10:01:36.122Z,100429.63
2022-11-09T10:04:04.723Z,100426.66
2022-11-09T10:06:49.490Z,100419.31
2022-11-09T10:09:33.066Z,100425.47
2022-11-09T10:12:12.216Z,100420.47
2022-11-09T10:15:07.434Z,100415.75
2022-11-09T10:17:50.227Z,100413.88
2022-11-09T10:20:52.912Z,100413.41
2022-11-09T10:23:44.796Z,100421.94
2022-11-09T10:26:19.979Z,100412.72
2022-11-09T10:31:47.899Z,100409.00
2022-11-09T10:34:20.768Z,100398.69
2022-11-09T10:37:04.436Z,100408.53
2022-11-09T10:39:45.339Z,100403.88
2022-11-09T10:42:32.591Z,100400.47
2022-11-09T10:45:30.475Z,100397.72
2022-11-09T10:48:33.261Z,100398.25
2022-11-09T10:51:40.579Z,100394.41
2022-11-09T10:54:31.194Z,100409.63
2022-11-09T10:57:22.905Z,100399.31
2022-11-09T11:00:17.593Z,100395.88
2022-11-09T11:03:16.459Z,100391.44
2022-11-09T11:06:05.882Z,100392.47
2022-11-09T11:09:14.519Z,100376.56
2022-11-09T11:12:16.245Z,100391.09
2022-11-09T11:15:04.842Z,100404.50
2022-11-09T11:18:01.166Z,100389.63
2022-11-09T11:20:48.726Z,100395.34
2022-11-09T11:23:36.966Z,100395.69
2022-11-09T11:26:35.570Z,100385.47
2022-11-09T11:29:38.632Z,100394.91
2022-11-09T11:32:27.320Z,100388.56
2022-11-09T11:35:16.605Z,100396.19
2022-11-09T11:38:21.151Z,100392.22
2022-11-09T11:41:31.695Z,100396.66
2022-11-09T11:44:42.874Z,100387.78
2022-11-09T11:47:43.024Z,100381.59
2022-11-09T11:50:42.239Z,100378.06
2022-11-09T11:53:48.883Z,100382.50
2022-11-09T11:56:43.271Z,100396.50
2022-11-09T11:59:56.896Z,100396.66
2022-11-09T12:03:14.227Z,100400.53
2022-11-09T12:06:44.326Z,100392.16
2022-11-09T12:09:54.582Z,100386.88
2022-11-09T12:12:53.701Z,100392.16
2022-11-09T12:15:53.201Z,100393.84
2022-11-09T12:18:56.706Z,100380.56
2022-11-09T12:21:52.543Z,100377.81
2022-11-09T12:24:47.762Z,100383.97
2022-11-09T12:28:07.535Z,100375.28
2022-11-09T12:31:10.298Z,100373.38
2022-11-09T12:34:04.544Z,100368.78
2022-11-09T12:36:56.655Z,100371.22
2022-11-09T12:39:47.436Z,100381.69
2022-11-09T12:42:44.481Z,100376.34
2022-11-09T12:45:35.327Z,100378.06
2022-11-09T12:48:25.748Z,100374.50
2022-11-09T12:51:14.234Z,100376.19
2022-11-09T12:54:03.008Z,100370.84
2022-11-09T12:56:56.288Z,100364.59
2022-11-09T13:00:30.225Z,100370.91
2022-11-09T13:03:27.461Z,100378.78
2022-11-09T13:06:20.632Z,100383.13
2022-11-09T13:09:20.471Z,100382.19
2022-11-09T13:12:19.416Z,100384.06
2022-11-09T13:15:27.862Z,100382.34
2022-11-09T13:18:27.275Z,100384.22
2022-11-09T13:21:40.467Z,100381.59
2022-11-09T13:24:56.397Z,100377.19
2022-11-09T13:27:45.654Z,100380.78
2022-11-09T13:30:43.846Z,100386.25
2022-11-09T13:33:31.707Z,100389.78
2022-11-09T13:36:22.390Z,100385.44
2022-11-09T13:39:31.806Z,100377.66
2022-11-09T13:42:34.668Z,100386.56
2022-11-09T13:45:30.437Z,100383.13
2022-11-09T13:48:35.118Z,100377.97
2022-11-09T13:51:26.859Z,100376.19
2022-11-09T13:57:10.113Z,100380.63
2022-11-09T14:00:00.801Z,100384.22
2022-11-09T14:02:55.896Z,100379.84
2022-11-09T14:05:45.310Z,100378.13
2022-11-09T14:08:40.394Z,100380.78
2022-11-09T14:11:55.868Z,100380.09
2022-11-09T14:15:08.765Z,100388.94
2022-11-09T14:18:11.991Z,100389.00
2022-11-09T14:21:14.363Z,100398.03
2022-11-09T14:24:04.898Z,100396.28
2022-11-09T14:27:16.806Z,100390.31
2022-11-09T14:30:20.386Z,100392.16
2022-11-09T14:33:23.093Z,100389.59
2022-11-09T14:36:13.937Z,100386.97
2022-11-09T14:39:03.524Z,100395.84
2022-11-09T14:41:51.609Z,100400.31
2022-11-09T14:44:43.836Z,100401.25
2022-11-09T14:47:35.259Z,100411.91
2022-11-09T14:50:25.955Z,100413.69
2022-11-09T14:53:18.995Z,100415.63
2022-11-09T14:56:09.199Z,100420.97
2022-11-09T14:58:58.191Z,100420.19
2022-11-09T15:01:59.895Z,100428.28
2022-11-09T15:04:56.891Z,100432.84
2022-11-09T15:07:48.035Z,100440.06
2022-11-09T15:10:36.019Z,100440.22
2022-11-09T15:13:32.626Z,100442.22
2022-11-09T15:16:24.145Z,100445.94
2022-11-09T15:19:31.579Z,100443.50
2022-11-09T15:22:48.000Z,100436.66
2022-11-09T15:25:37.793Z,100434.06
2022-11-09T15:28:27.400Z,100439.50
2022-11-09T15:31:18.804Z,100438.78
2022-11-09T15:34:23.799Z,100445.06
2022-11-09T15:37:28.240Z,100440.72
2022-11-09T15:40:21.564Z,100445.06
2022-11-09T15:43:08.464Z,100453.00
2022-11-09T15:45:56.493Z,100455.63
2022-11-09T15:48:46.346Z,100447.00
2022-11-09T15:51:33.880Z,100448.00
2022-11-09T15:54:22.029Z,100452.50
2022-11-09T15:57:18.672Z,100455.16
2022-11-09T16:00:11.342Z,100455.16
2022-11-09T16:03:01.161Z,100461.47
2022-11-09T16:05:48.703Z,100461.63
2022-11-09T16:08:35.308Z,100465.34
2022-11-09T16:11:22.106Z,100470.75
2022-11-09T16:14:10.461Z,100474.47
2022-11-09T16:16:57.675Z,100473.72
2022-11-09T16:19:44.359Z,100479.22
2022-11-09T16:22:32.824Z,100480.25
2022-11-09T16:25:20.378Z,100483.13
2022-11-09T16:28:07.511Z,100492.97
2022-11-09T16:30:55.847Z,100493.97
2022-11-09T16:33:43.247Z,100501.13
2022-11-09T16:36:31.201Z,100505.59
2022-11-09T16:39:18.575Z,100505.72
2022-11-09T16:42:10.145Z,100515.44
2022-11-09T16:45:01.429Z,100518.13
2022-11-09T16:47:53.799Z,100523.53
2022-11-09T16:50:40.833Z,100535.00
2022-11-09T16:53:27.854Z,100530.72
2022-11-09T16:56:14.863Z,100547.47
2022-11-09T16:59:02.423Z,100543.06
2022-11-09T17:01:53.486Z,100548.34
2022-11-09T17:04:42.252Z,100559.88
2022-11-09T17:07:29.770Z,100562.63
2022-11-09T17:10:17.216Z,100574.13
2022-11-09T17:13:04.427Z,100575.94
2022-11-09T17:15:53.338Z,100573.34
2022-11-09T17:18:40.563Z,100588.41
2022-11-09T17:21:30.349Z,100580.63
2022-11-09T17:24:17.840Z,100587.72
2022-11-09T17:27:04.857Z,100598.41
2022-11-09T17:29:52.708Z,100587.13
2022-11-09T17:32:41.003Z,100603.06
2022-11-09T17:35:28.339Z,100604.03
2022-11-09T17:38:16.707Z,100599.75
2022-11-09T17:41:05.126Z,100599.81
2022-11-09T17:43:51.944Z,100616.53
2022-11-09T17:46:39.029Z,100619.31
2022-11-09T17:49:26.217Z,100617.66
2022-11-09T17:52:13.030Z,100624.81
2022-11-09T17:55:01.654Z,100621.38
2022-11-09T17:57:48.642Z,100626.75
2022-11-09T18:00:35.436Z,100625.16
2022-11-09T18:03:23.077Z,100624.38
2022-11-09T18:06:13.217Z,100633.19
2022-11-09T18:09:34.451Z,100633.31
2022-11-09T18:12:09.182Z,100638.72
2022-11-09T18:14:56.119Z,100640.53
2022-11-09T18:17:43.855Z,100638.81
2022-11-09T18:20:30.802Z,100634.53
2022-11-09T18:23:18.134Z,100641.69
2022-11-09T18:26:06.229Z,100654.06
2022-11-09T18:28:56.404Z,100651.53
2022-11-09T18:31:43.349Z,100658.66
2022-11-09T18:34:30.511Z,100657.00
2022-11-09T18:37:17.576Z,100668.41
2022-11-09T18:40:05.070Z,100673.81
2022-11-09T18:42:52.033Z,100674.78
2022-11-09T18:45:40.299Z,100666.09
2022-11-09T18:48:27.986Z,100681.88
2022-11-09T18:51:14.887Z,100683.72
2022-11-09T18:54:01.944Z,100686.41
2022-11-09T18:56:49.190Z,100692.53
2022-11-09T18:59:39.978Z,100692.53
2022-11-09T19:02:28.419Z,100697.75
2022-11-09T19:05:15.746Z,100695.06
2022-11-09T19:08:02.447Z,100690.69
2022-11-09T19:10:49.524Z,100699.53
2022-11-09T19:13:36.818Z,100701.34
2022-11-09T19:16:25.237Z,100704.91
2022-11-09T19:19:15.880Z,100702.38
2022-11-09T19:22:02.793Z,100704.19
2022-11-09T19:24:50.166Z,100720.06
2022-11-09T19:27:37.185Z,100708.78
2022-11-09T19:30:25.812Z,100711.41
2022-11-09T19:33:12.933Z,100721.09
2022-11-09T19:36:28.510Z,100729.13
2022-11-09T19:39:08.577Z,100726.59
2022-11-09T19:41:55.997Z,100727.50
2022-11-09T19:44:43.118Z,100737.22
2022-11-09T19:47:30.075Z,100746.94
2022-11-09T19:50:17.476Z,100750.53
2022-11-09T19:53:05.327Z,100747.97
2022-11-09T19:55:52.391Z,100752.41
2022-11-09T19:58:39.554Z,100761.28
2022-11-09T20:01:27.373Z,100763.97
2022-11-09T20:04:14.151Z,100762.22
2022-11-09T20:07:01.431Z,100762.22
2022-11-09T20:09:49.753Z,100764.06
2022-11-09T20:12:51.900Z,100767.59
2022-11-09T20:15:38.947Z,100767.69
2022-11-09T20:18:26.382Z,100769.47
2022-11-09T20:21:13.272Z,100774.81
2022-11-09T20:24:00.297Z,100778.31
2022-11-09T20:26:48.356Z,100794.22
2022-11-09T20:29:35.850Z,100794.31
2022-11-09T20:32:23.772Z,100799.69
2022-11-09T20:35:10.898Z,100794.50
2022-11-09T20:37:58.157Z,100801.63
2022-11-09T20:40:45.266Z,100809.66
2022-11-09T20:43:33.587Z,100807.97
2022-11-09T20:46:24.459Z,100807.13
2022-11-09T20:49:11.966Z,100811.59
2022-11-09T20:51:59.411Z,100816.06
2022-11-09T20:54:46.136Z,100823.13
2022-11-09T20:57:33.155Z,100828.47
2022-11-09T21:00:24.516Z,100832.97
2022-11-09T21:03:11.838Z,100837.47
2022-11-09T21:05:59.396Z,100836.63
2022-11-09T21:08:47.445Z,100841.97
2022-11-09T21:11:57.300Z,100844.72
2022-11-09T21:14:44.465Z,100858.03
2022-11-09T21:17:33.093Z,100857.25
2022-11-09T21:20:20.048Z,100862.69
2022-11-09T21:23:25.267Z,100861.88
2022-11-09T21:26:29.860Z,100876.03
2022-11-09T21:29:37.537Z,100880.53
2022-11-09T21:32:25.093Z,100888.50
2022-11-09T21:35:13.162Z,100903.44
2022-11-09T21:38:00.131Z,100905.25
2022-11-09T21:40:47.001Z,100909.72
2022-11-09T21:43:34.065Z,100921.25
2022-11-09T21:46:20.951Z,100922.25
2022-11-09T21:49:10.207Z,100925.97
2022-11-09T21:51:58.820Z,100927.84
2022-11-09T21:54:45.986Z,100934.94
2022-11-09T21:57:32.922Z,100938.56
2022-11-09T22:00:20.348Z,100942.22
2022-11-09T22:03:07.381Z,100934.47
2022-11-09T22:05:54.089Z,100945.13
2022-11-09T22:08:42.701Z,100950.53
2022-11-09T22:11:43.768Z,100945.44
2022-11-09T22:14:47.817Z,100953.47
2022-11-09T22:17:34.708Z,100956.28
2022-11-09T22:20:39.363Z,100970.41
2022-11-09T22:23:26.561Z,100974.19
2022-11-09T22:26:14.862Z,100981.31
2022-11-09T22:29:02.170Z,100983.22
2022-11-09T22:31:49.102Z,100995.56
2022-11-09T22:34:36.095Z,100998.31
2022-11-09T22:37:23.043Z,101000.09
2022-11-09T22:40:11.305Z,100993.97
2022-11-09T22:42:59.393Z,101002.72
2022-11-09T22:45:46.416Z,101010.63
2022-11-09T22:48:33.578Z,101007.97
2022-11-09T22:51:20.943Z,101012.28
2022-11-09T22:54:08.588Z,101007.84
2022-11-09T22:56:55.826Z,101014.84
2022-11-09T22:59:43.654Z,101014.00
2022-11-09T23:02:30.793Z,101022.72
2022-11-09T23:05:18.183Z,101032.31
2022-11-09T23:08:05.782Z,101034.09
2022-11-09T23:10:55.917Z,101034.13
2022-11-09T23:13:43.475Z,101039.41
2022-11-09T23:16:31.612Z,101042.06
2022-11-09T23:19:17.695Z,101048.25
2022-11-09T23:22:04.909Z,101054.41
2022-11-09T23:25:09.270Z,101059.66
2022-11-09T23:27:56.804Z,101057.03
2022-11-09T23:30:44.132Z,101054.47
2022-11-09T23:33:32.267Z,101058.84
2022-11-09T23:36:19.678Z,101059.78
2022-11-09T23:39:07.050Z,101064.22
2022-11-09T23:41:53.959Z,101061.66
2022-11-09T23:44:40.573Z,101066.09
2022-11-09T23:47:27.684Z,101079.31
2022-11-09T23:50:15.939Z,101072.38
2022-11-09T23:53:03.065Z,101079.41
2022-11-09T23:55:50.381Z,101074.19
2022-11-09T23:58:37.788Z,101076.81
